Terminal Aerodrome Forecast
Issued by NWS

Home | Current Version | Previous Version | Text Only | Print | Product List | Glossary On
Versions: 1 2 3 4 5 6 7 8 9 10 11 12 13 14 15 16 17 18 19 20 21 22 23
136
FTUS41 KOKX 031131
TAFHPN
TAF
KHPN 031131Z 0312/0412 VRB04KT 3SM RA BR SCT005 BKN015
      TEMPO 0312/0313 2SM +RA BR BKN005
     FM031300 04006KT 4SM -RA BR OVC015
     FM031600 05006KT 6SM -DZ BR BKN010 OVC035
     FM040000 VRB03KT 3SM BR BKN010
     FM040600 VRB02KT 1 1/2SM BR BKN007
      AMD NOT SKED=

USA.gov is the U.S. government's official web portal to all federal, state and local government web resources and services.